sensor_id;sensor_type;location;lat;lon;timestamp;P1;durP1;ratioP1;P2;durP2;ratioP2
6651;SDS011;3362;50.892;10.692;2024-02-26T00:02:24;0.50;;;0.50;;
6651;SDS011;3362;50.892;10.692;2024-02-26T00:04:52;0.73;;;0.73;;
6651;SDS011;3362;50.892;10.692;2024-02-26T00:07:18;1.17;;;0.90;;
6651;SDS011;3362;50.892;10.692;2024-02-26T00:09:44;0.50;;;0.50;;
6651;SDS011;3362;50.892;10.692;2024-02-26T00:12:11;0.70;;;0.70;;
6651;SDS011;3362;50.892;10.692;2024-02-26T00:14:37;1.20;;;0.55;;
6651;SDS011;3362;50.892;10.692;2024-02-26T00:17:03;0.80;;;0.80;;
6651;SDS011;3362;50.892;10.692;2024-02-26T00:19:29;0.63;;;0.63;;
6651;SDS011;3362;50.892;10.692;2024-02-26T00:21:57;0.70;;;0.50;;
6651;SDS011;3362;50.892;10.692;2024-02-26T00:24:23;0.55;;;0.55;;
6651;SDS011;3362;50.892;10.692;2024-02-26T00:26:49;0.88;;;0.88;;
6651;SDS011;3362;50.892;10.692;2024-02-26T00:29:19;0.32;;;0.32;;
6651;SDS011;3362;50.892;10.692;2024-02-26T00:31:45;1.13;;;1.05;;
6651;SDS011;3362;50.892;10.692;2024-02-26T00:34:11;0.43;;;0.43;;
6651;SDS011;3362;50.892;10.692;2024-02-26T00:36:38;0.80;;;0.80;;
6651;SDS011;3362;50.892;10.692;2024-02-26T00:39:05;1.40;;;1.30;;
6651;SDS011;3362;50.892;10.692;2024-02-26T00:41:32;1.95;;;1.35;;
6651;SDS011;3362;50.892;10.692;2024-02-26T00:43:58;0.50;;;0.50;;
6651;SDS011;3362;50.892;10.692;2024-02-26T00:46:25;0.30;;;0.28;;
6651;SDS011;3362;50.892;10.692;2024-02-26T00:48:51;0.75;;;0.73;;
6651;SDS011;3362;50.892;10.692;2024-02-26T00:51:17;1.13;;;1.05;;
6651;SDS011;3362;50.892;10.692;2024-02-26T00:53:44;0.60;;;0.60;;
6651;SDS011;3362;50.892;10.692;2024-02-26T00:56:11;0.70;;;0.70;;
6651;SDS011;3362;50.892;10.692;2024-02-26T00:58:37;0.40;;;0.40;;
6651;SDS011;3362;50.892;10.692;2024-02-26T01:01:04;0.40;;;0.40;;
6651;SDS011;3362;50.892;10.692;2024-02-26T01:03:30;0.90;;;0.70;;
6651;SDS011;3362;50.892;10.692;2024-02-26T01:05:56;1.00;;;0.50;;
6651;SDS011;3362;50.892;10.692;2024-02-26T01:08:22;0.35;;;0.35;;
6651;SDS011;3362;50.892;10.692;2024-02-26T01:10:49;0.73;;;0.73;;
6651;SDS011;3362;50.892;10.692;2024-02-26T01:13:16;0.73;;;0.73;;
6651;SDS011;3362;50.892;10.692;2024-02-26T01:15:43;0.63;;;0.63;;
6651;SDS011;3362;50.892;10.692;2024-02-26T01:18:09;1.75;;;0.85;;
6651;SDS011;3362;50.892;10.692;2024-02-26T01:20:36;3.47;;;1.27;;
6651;SDS011;3362;50.892;10.692;2024-02-26T01:23:02;0.30;;;0.30;;
6651;SDS011;3362;50.892;10.692;2024-02-26T01:25:28;1.00;;;1.00;;
6651;SDS011;3362;50.892;10.692;2024-02-26T01:27:55;1.00;;;0.95;;
6651;SDS011;3362;50.892;10.692;2024-02-26T01:30:22;0.40;;;0.20;;
6651;SDS011;3362;50.892;10.692;2024-02-26T01:32:48;0.45;;;0.45;;
6651;SDS011;3362;50.892;10.692;2024-02-26T01:35:15;0.63;;;0.63;;
6651;SDS011;3362;50.892;10.692;2024-02-26T01:37:41;0.77;;;0.77;;
6651;SDS011;3362;50.892;10.692;2024-02-26T01:40:08;0.80;;;0.80;;
6651;SDS011;3362;50.892;10.692;2024-02-26T01:42:34;1.25;;;0.98;;
6651;SDS011;3362;50.892;10.692;2024-02-26T01:45:01;0.90;;;0.85;;
6651;SDS011;3362;50.892;10.692;2024-02-26T01:47:28;1.23;;;1.17;;
6651;SDS011;3362;50.892;10.692;2024-02-26T01:49:55;1.05;;;0.95;;
6651;SDS011;3362;50.892;10.692;2024-02-26T01:52:21;1.98;;;0.93;;
6651;SDS011;3362;50.892;10.692;2024-02-26T01:54:47;0.70;;;0.70;;
6651;SDS011;3362;50.892;10.692;2024-02-26T01:57:14;1.58;;;1.48;;
6651;SDS011;3362;50.892;10.692;2024-02-26T01:59:40;1.00;;;1.00;;
6651;SDS011;3362;50.892;10.692;2024-02-26T02:02:07;1.00;;;1.00;;
6651;SDS011;3362;50.892;10.692;2024-02-26T02:04:35;2.80;;;1.88;;
6651;SDS011;3362;50.892;10.692;2024-02-26T02:07:02;0.95;;;0.95;;
6651;SDS011;3362;50.892;10.692;2024-02-26T02:09:28;1.17;;;1.13;;
6651;SDS011;3362;50.892;10.692;2024-02-26T02:11:55;1.10;;;1.10;;
6651;SDS011;3362;50.892;10.692;2024-02-26T02:14:21;1.40;;;1.35;;
6651;SDS011;3362;50.892;10.692;2024-02-26T02:16:48;1.13;;;1.02;;
6651;SDS011;3362;50.892;10.692;2024-02-26T02:19:14;1.02;;;1.02;;
6651;SDS011;3362;50.892;10.692;2024-02-26T02:21:41;1.00;;;1.00;;
6651;SDS011;3362;50.892;10.692;2024-02-26T02:24:07;1.45;;;1.45;;
6651;SDS011;3362;50.892;10.692;2024-02-26T02:26:34;0.70;;;0.70;;
6651;SDS011;3362;50.892;10.692;2024-02-26T02:29:00;2.08;;;1.73;;
6651;SDS011;3362;50.892;10.692;2024-02-26T02:31:26;1.88;;;0.77;;
6651;SDS011;3362;50.892;10.692;2024-02-26T02:33:53;1.00;;;1.00;;
6651;SDS011;3362;50.892;10.692;2024-02-26T02:36:19;1.17;;;1.17;;
6651;SDS011;3362;50.892;10.692;2024-02-26T02:38:49;0.68;;;0.68;;
6651;SDS011;3362;50.892;10.692;2024-02-26T02:41:16;0.63;;;0.63;;
6651;SDS011;3362;50.892;10.692;2024-02-26T02:43:42;0.55;;;0.55;;
6651;SDS011;3362;50.892;10.692;2024-02-26T02:46:08;0.47;;;0.45;;
6651;SDS011;3362;50.892;10.692;2024-02-26T02:48:36;3.70;;;0.80;;
6651;SDS011;3362;50.892;10.692;2024-02-26T02:51:03;0.90;;;0.90;;
6651;SDS011;3362;50.892;10.692;2024-02-26T02:53:29;1.88;;;1.10;;
6651;SDS011;3362;50.892;10.692;2024-02-26T02:55:56;1.05;;;1.05;;
6651;SDS011;3362;50.892;10.692;2024-02-26T02:58:23;0.80;;;0.80;;
6651;SDS011;3362;50.892;10.692;2024-02-26T03:00:49;0.60;;;0.60;;
6651;SDS011;3362;50.892;10.692;2024-02-26T03:03:15;1.20;;;0.90;;
6651;SDS011;3362;50.892;10.692;2024-02-26T03:05:41;0.73;;;0.73;;
6651;SDS011;3362;50.892;10.692;2024-02-26T03:08:08;1.83;;;0.88;;
6651;SDS011;3362;50.892;10.692;2024-02-26T03:10:34;1.75;;;1.02;;
6651;SDS011;3362;50.892;10.692;2024-02-26T03:13:02;1.23;;;1.13;;
6651;SDS011;3362;50.892;10.692;2024-02-26T03:15:28;0.93;;;0.82;;
6651;SDS011;3362;50.892;10.692;2024-02-26T03:17:55;3.03;;;1.33;;
6651;SDS011;3362;50.892;10.692;2024-02-26T03:20:21;0.95;;;0.95;;
6651;SDS011;3362;50.892;10.692;2024-02-26T03:22:47;0.50;;;0.50;;
6651;SDS011;3362;50.892;10.692;2024-02-26T03:25:13;0.55;;;0.55;;
6651;SDS011;3362;50.892;10.692;2024-02-26T03:27:40;1.48;;;1.38;;
6651;SDS011;3362;50.892;10.692;2024-02-26T03:30:08;0.52;;;0.52;;
6651;SDS011;3362;50.892;10.692;2024-02-26T03:32:34;1.60;;;1.52;;
6651;SDS011;3362;50.892;10.692;2024-02-26T03:35:01;1.10;;;1.05;;
6651;SDS011;3362;50.892;10.692;2024-02-26T03:37:27;1.25;;;1.15;;
6651;SDS011;3362;50.892;10.692;2024-02-26T03:39:53;1.65;;;1.55;;
6651;SDS011;3362;50.892;10.692;2024-02-26T03:42:19;0.90;;;0.90;;
6651;SDS011;3362;50.892;10.692;2024-02-26T03:44:46;2.67;;;1.95;;
6651;SDS011;3362;50.892;10.692;2024-02-26T03:47:13;2.22;;;2.13;;
6651;SDS011;3362;50.892;10.692;2024-02-26T03:49:40;1.63;;;1.52;;
6651;SDS011;3362;50.892;10.692;2024-02-26T03:52:06;1.67;;;1.58;;
6651;SDS011;3362;50.892;10.692;2024-02-26T03:54:32;4.50;;;1.65;;
6651;SDS011;3362;50.892;10.692;2024-02-26T03:56:58;1.75;;;1.65;;
6651;SDS011;3362;50.892;10.692;2024-02-26T03:59:24;1.77;;;1.02;;
6651;SDS011;3362;50.892;10.692;2024-02-26T04:01:51;2.50;;;2.30;;
6651;SDS011;3362;50.892;10.692;2024-02-26T04:04:19;0.82;;;0.82;;
6651;SDS011;3362;50.892;10.692;2024-02-26T04:06:46;4.05;;;1.20;;
6651;SDS011;3362;50.892;10.692;2024-02-26T04:09:13;2.38;;;2.00;;
6651;SDS011;3362;50.892;10.692;2024-02-26T04:14:05;1.48;;;1.38;;
6651;SDS011;3362;50.892;10.692;2024-02-26T04:16:33;1.10;;;1.05;;
6651;SDS011;3362;50.892;10.692;2024-02-26T04:18:59;0.90;;;0.88;;
6651;SDS011;3362;50.892;10.692;2024-02-26T04:21:27;2.58;;;0.95;;
6651;SDS011;3362;50.892;10.692;2024-02-26T04:23:53;0.57;;;0.57;;
6651;SDS011;3362;50.892;10.692;2024-02-26T04:26:20;0.70;;;0.70;;
6651;SDS011;3362;50.892;10.692;2024-02-26T04:28:46;1.73;;;1.63;;
6651;SDS011;3362;50.892;10.692;2024-02-26T04:31:12;1.67;;;1.58;;
6651;SDS011;3362;50.892;10.692;2024-02-26T04:33:38;1.10;;;0.82;;
6651;SDS011;3362;50.892;10.692;2024-02-26T04:36:11;1.48;;;0.85;;
6651;SDS011;3362;50.892;10.692;2024-02-26T04:38:39;0.77;;;0.77;;
6651;SDS011;3362;50.892;10.692;2024-02-26T04:41:05;0.60;;;0.60;;
6651;SDS011;3362;50.892;10.692;2024-02-26T04:43:31;1.13;;;1.13;;
6651;SDS011;3362;50.892;10.692;2024-02-26T04:45:57;0.80;;;0.80;;
6651;SDS011;3362;50.892;10.692;2024-02-26T04:48:24;0.65;;;0.65;;
6651;SDS011;3362;50.892;10.692;2024-02-26T04:50:50;1.85;;;1.77;;
6651;SDS011;3362;50.892;10.692;2024-02-26T04:53:16;1.75;;;1.00;;
6651;SDS011;3362;50.892;10.692;2024-02-26T04:55:44;0.88;;;0.88;;
6651;SDS011;3362;50.892;10.692;2024-02-26T04:58:10;0.50;;;0.50;;
6651;SDS011;3362;50.892;10.692;2024-02-26T05:00:36;1.05;;;0.88;;
6651;SDS011;3362;50.892;10.692;2024-02-26T05:03:03;0.63;;;0.63;;
6651;SDS011;3362;50.892;10.692;2024-02-26T05:05:29;0.90;;;0.90;;
6651;SDS011;3362;50.892;10.692;2024-02-26T05:07:55;0.73;;;0.73;;
6651;SDS011;3362;50.892;10.692;2024-02-26T05:10:21;1.25;;;1.23;;
6651;SDS011;3362;50.892;10.692;2024-02-26T05:12:49;1.52;;;1.42;;
6651;SDS011;3362;50.892;10.692;2024-02-26T05:15:15;1.45;;;1.15;;
6651;SDS011;3362;50.892;10.692;2024-02-26T05:17:43;2.17;;;1.98;;
6651;SDS011;3362;50.892;10.692;2024-02-26T05:20:09;0.88;;;0.88;;
6651;SDS011;3362;50.892;10.692;2024-02-26T05:22:36;1.77;;;1.17;;
6651;SDS011;3362;50.892;10.692;2024-02-26T05:25:03;1.10;;;1.10;;
6651;SDS011;3362;50.892;10.692;2024-02-26T05:27:29;2.22;;;2.05;;
6651;SDS011;3362;50.892;10.692;2024-02-26T05:29:56;1.17;;;1.08;;
6651;SDS011;3362;50.892;10.692;2024-02-26T05:32:23;1.23;;;1.08;;
6651;SDS011;3362;50.892;10.692;2024-02-26T05:34:49;0.38;;;0.32;;
6651;SDS011;3362;50.892;10.692;2024-02-26T05:37:15;2.50;;;2.15;;
6651;SDS011;3362;50.892;10.692;2024-02-26T05:39:41;1.08;;;0.98;;
6651;SDS011;3362;50.892;10.692;2024-02-26T05:42:07;0.77;;;0.65;;
6651;SDS011;3362;50.892;10.692;2024-02-26T05:44:34;1.45;;;0.85;;
6651;SDS011;3362;50.892;10.692;2024-02-26T05:47:02;1.20;;;0.90;;
6651;SDS011;3362;50.892;10.692;2024-02-26T05:49:28;2.00;;;1.90;;
6651;SDS011;3362;50.892;10.692;2024-02-26T05:51:54;1.48;;;1.25;;
6651;SDS011;3362;50.892;10.692;2024-02-26T05:54:21;0.88;;;0.88;;
6651;SDS011;3362;50.892;10.692;2024-02-26T05:56:47;0.65;;;0.65;;
6651;SDS011;3362;50.892;10.692;2024-02-26T05:59:13;1.42;;;1.40;;
6651;SDS011;3362;50.892;10.692;2024-02-26T06:01:40;1.67;;;1.45;;
6651;SDS011;3362;50.892;10.692;2024-02-26T06:04:07;1.63;;;1.52;;
6651;SDS011;3362;50.892;10.692;2024-02-26T06:06:34;0.98;;;0.98;;
6651;SDS011;3362;50.892;10.692;2024-02-26T06:09:00;1.52;;;1.42;;
6651;SDS011;3362;50.892;10.692;2024-02-26T06:11:26;0.40;;;0.40;;
6651;SDS011;3362;50.892;10.692;2024-02-26T06:13:53;0.80;;;0.70;;
6651;SDS011;3362;50.892;10.692;2024-02-26T06:16:19;1.35;;;1.25;;
6651;SDS011;3362;50.892;10.692;2024-02-26T06:18:45;0.50;;;0.50;;
6651;SDS011;3362;50.892;10.692;2024-02-26T06:21:13;0.98;;;0.98;;
6651;SDS011;3362;50.892;10.692;2024-02-26T06:23:39;1.10;;;1.08;;
6651;SDS011;3362;50.892;10.692;2024-02-26T06:26:06;1.00;;;1.00;;
6651;SDS011;3362;50.892;10.692;2024-02-26T06:28:32;0.75;;;0.75;;
6651;SDS011;3362;50.892;10.692;2024-02-26T06:31:00;0.93;;;0.93;;
6651;SDS011;3362;50.892;10.692;2024-02-26T06:33:27;1.00;;;1.00;;
6651;SDS011;3362;50.892;10.692;2024-02-26T06:35:53;0.80;;;0.80;;
6651;SDS011;3362;50.892;10.692;2024-02-26T06:38:20;1.13;;;1.13;;
6651;SDS011;3362;50.892;10.692;2024-02-26T06:40:46;1.30;;;1.10;;
6651;SDS011;3362;50.892;10.692;2024-02-26T06:43:13;3.03;;;1.38;;
6651;SDS011;3362;50.892;10.692;2024-02-26T06:45:39;0.90;;;0.90;;
6651;SDS011;3362;50.892;10.692;2024-02-26T06:48:05;0.85;;;0.85;;
6651;SDS011;3362;50.892;10.692;2024-02-26T06:50:32;1.60;;;1.50;;
6651;SDS011;3362;50.892;10.692;2024-02-26T06:52:58;0.30;;;0.30;;
6651;SDS011;3362;50.892;10.692;2024-02-26T06:55:26;1.00;;;1.00;;
6651;SDS011;3362;50.892;10.692;2024-02-26T06:57:52;1.38;;;1.38;;
6651;SDS011;3362;50.892;10.692;2024-02-26T07:00:18;0.63;;;0.63;;
6651;SDS011;3362;50.892;10.692;2024-02-26T07:02:44;7.82;;;2.10;;
6651;SDS011;3362;50.892;10.692;2024-02-26T07:05:10;0.75;;;0.75;;
6651;SDS011;3362;50.892;10.692;2024-02-26T07:07:37;1.30;;;1.30;;
6651;SDS011;3362;50.892;10.692;2024-02-26T07:10:04;0.60;;;0.60;;
6651;SDS011;3362;50.892;10.692;2024-02-26T07:12:32;4.10;;;1.38;;
6651;SDS011;3362;50.892;10.692;2024-02-26T07:14:58;0.68;;;0.68;;
6651;SDS011;3362;50.892;10.692;2024-02-26T07:17:24;2.20;;;2.00;;
6651;SDS011;3362;50.892;10.692;2024-02-26T07:19:50;1.05;;;1.02;;
6651;SDS011;3362;50.892;10.692;2024-02-26T07:22:16;1.35;;;0.70;;
6651;SDS011;3362;50.892;10.692;2024-02-26T07:24:43;0.70;;;0.70;;
6651;SDS011;3362;50.892;10.692;2024-02-26T07:27:09;0.98;;;0.98;;
6651;SDS011;3362;50.892;10.692;2024-02-26T07:29:36;1.38;;;1.27;;
6651;SDS011;3362;50.892;10.692;2024-02-26T07:32:03;0.43;;;0.43;;
6651;SDS011;3362;50.892;10.692;2024-02-26T07:34:29;1.13;;;1.05;;
6651;SDS011;3362;50.892;10.692;2024-02-26T07:36:55;0.70;;;0.70;;
6651;SDS011;3362;50.892;10.692;2024-02-26T07:39:22;2.60;;;1.50;;
6651;SDS011;3362;50.892;10.692;2024-02-26T07:41:48;1.88;;;1.77;;
6651;SDS011;3362;50.892;10.692;2024-02-26T07:44:16;1.05;;;1.05;;
6651;SDS011;3362;50.892;10.692;2024-02-26T07:46:44;1.85;;;1.75;;
6651;SDS011;3362;50.892;10.692;2024-02-26T07:49:10;2.67;;;1.60;;
6651;SDS011;3362;50.892;10.692;2024-02-26T07:51:36;2.88;;;1.50;;
6651;SDS011;3362;50.892;10.692;2024-02-26T07:54:02;1.77;;;1.50;;
6651;SDS011;3362;50.892;10.692;2024-02-26T07:56:29;1.67;;;1.52;;
6651;SDS011;3362;50.892;10.692;2024-02-26T07:58:55;3.20;;;2.47;;
6651;SDS011;3362;50.892;10.692;2024-02-26T08:01:21;2.20;;;1.17;;
6651;SDS011;3362;50.892;10.692;2024-02-26T08:03:49;2.80;;;1.58;;
6651;SDS011;3362;50.892;10.692;2024-02-26T08:06:16;1.83;;;1.73;;
6651;SDS011;3362;50.892;10.692;2024-02-26T08:08:42;1.20;;;1.05;;
6651;SDS011;3362;50.892;10.692;2024-02-26T08:11:09;2.72;;;2.60;;
6651;SDS011;3362;50.892;10.692;2024-02-26T08:13:35;3.92;;;0.82;;
6651;SDS011;3362;50.892;10.692;2024-02-26T08:16:01;1.27;;;1.17;;
6651;SDS011;3362;50.892;10.692;2024-02-26T08:18:28;1.58;;;1.42;;
6651;SDS011;3362;50.892;10.692;2024-02-26T08:20:55;1.25;;;1.15;;
6651;SDS011;3362;50.892;10.692;2024-02-26T08:23:21;0.90;;;0.90;;
6651;SDS011;3362;50.892;10.692;2024-02-26T08:28:14;1.15;;;0.73;;
6651;SDS011;3362;50.892;10.692;2024-02-26T08:30:42;1.08;;;1.00;;
6651;SDS011;3362;50.892;10.692;2024-02-26T08:33:09;6.07;;;1.08;;
6651;SDS011;3362;50.892;10.692;2024-02-26T08:35:35;0.82;;;0.82;;
6651;SDS011;3362;50.892;10.692;2024-02-26T08:38:03;1.50;;;1.40;;
6651;SDS011;3362;50.892;10.692;2024-02-26T08:40:29;1.00;;;0.95;;
6651;SDS011;3362;50.892;10.692;2024-02-26T08:42:55;2.00;;;1.75;;
6651;SDS011;3362;50.892;10.692;2024-02-26T08:45:22;1.13;;;1.13;;
6651;SDS011;3362;50.892;10.692;2024-02-26T08:47:49;2.30;;;2.20;;
6651;SDS011;3362;50.892;10.692;2024-02-26T08:50:15;2.60;;;1.63;;
6651;SDS011;3362;50.892;10.692;2024-02-26T08:52:41;1.23;;;1.20;;
6651;SDS011;3362;50.892;10.692;2024-02-26T08:55:09;1.80;;;1.65;;
6651;SDS011;3362;50.892;10.692;2024-02-26T08:57:35;2.92;;;1.45;;
6651;SDS011;3362;50.892;10.692;2024-02-26T09:00:03;0.93;;;0.93;;
6651;SDS011;3362;50.892;10.692;2024-02-26T09:02:30;2.38;;;2.17;;
6651;SDS011;3362;50.892;10.692;2024-02-26T09:04:56;4.25;;;2.35;;
6651;SDS011;3362;50.892;10.692;2024-02-26T09:07:23;1.45;;;1.35;;
6651;SDS011;3362;50.892;10.692;2024-02-26T09:09:49;2.30;;;2.03;;
6651;SDS011;3362;50.892;10.692;2024-02-26T09:14:43;2.55;;;2.35;;
6651;SDS011;3362;50.892;10.692;2024-02-26T09:17:09;1.83;;;1.30;;
6651;SDS011;3362;50.892;10.692;2024-02-26T09:19:35;3.47;;;3.17;;
6651;SDS011;3362;50.892;10.692;2024-02-26T09:22:03;3.20;;;2.45;;
6651;SDS011;3362;50.892;10.692;2024-02-26T09:24:29;2.75;;;2.50;;
6651;SDS011;3362;50.892;10.692;2024-02-26T09:26:55;2.78;;;2.38;;
6651;SDS011;3362;50.892;10.692;2024-02-26T09:29:21;1.75;;;1.65;;
6651;SDS011;3362;50.892;10.692;2024-02-26T09:31:49;2.55;;;2.22;;
6651;SDS011;3362;50.892;10.692;2024-02-26T09:34:15;3.40;;;2.45;;
6651;SDS011;3362;50.892;10.692;2024-02-26T09:36:41;1.75;;;1.52;;
6651;SDS011;3362;50.892;10.692;2024-02-26T09:39:08;4.68;;;2.85;;
6651;SDS011;3362;50.892;10.692;2024-02-26T09:41:36;2.92;;;2.63;;
6651;SDS011;3362;50.892;10.692;2024-02-26T09:46:29;2.58;;;2.38;;
6651;SDS011;3362;50.892;10.692;2024-02-26T09:48:57;3.25;;;2.92;;
6651;SDS011;3362;50.892;10.692;2024-02-26T09:51:23;3.47;;;3.17;;
6651;SDS011;3362;50.892;10.692;2024-02-26T09:53:51;4.00;;;3.55;;
6651;SDS011;3362;50.892;10.692;2024-02-26T09:56:17;7.20;;;5.15;;
6651;SDS011;3362;50.892;10.692;2024-02-26T09:58:44;4.55;;;3.17;;
6651;SDS011;3362;50.892;10.692;2024-02-26T10:01:16;5.57;;;3.30;;
6651;SDS011;3362;50.892;10.692;2024-02-26T10:03:42;11.05;;;3.13;;
6651;SDS011;3362;50.892;10.692;2024-02-26T10:06:11;7.95;;;4.32;;
6651;SDS011;3362;50.892;10.692;2024-02-26T10:08:37;4.35;;;3.92;;
6651;SDS011;3362;50.892;10.692;2024-02-26T10:11:04;4.85;;;3.80;;
6651;SDS011;3362;50.892;10.692;2024-02-26T10:13:31;7.13;;;4.95;;
6651;SDS011;3362;50.892;10.692;2024-02-26T10:15:56;6.33;;;3.97;;
6651;SDS011;3362;50.892;10.692;2024-02-26T10:18:23;3.47;;;2.65;;
6651;SDS011;3362;50.892;10.692;2024-02-26T10:20:58;3.75;;;3.03;;
6651;SDS011;3362;50.892;10.692;2024-02-26T10:23:26;7.75;;;5.85;;
6651;SDS011;3362;50.892;10.692;2024-02-26T10:25:53;10.07;;;5.45;;
6651;SDS011;3362;50.892;10.692;2024-02-26T10:28:19;7.38;;;3.45;;
6651;SDS011;3362;50.892;10.692;2024-02-26T10:30:45;7.22;;;5.43;;
6651;SDS011;3362;50.892;10.692;2024-02-26T10:33:12;10.02;;;8.07;;
6651;SDS011;3362;50.892;10.692;2024-02-26T10:35:39;13.15;;;6.40;;
6651;SDS011;3362;50.892;10.692;2024-02-26T10:38:05;9.60;;;7.40;;
6651;SDS011;3362;50.892;10.692;2024-02-26T10:40:34;6.35;;;3.35;;
6651;SDS011;3362;50.892;10.692;2024-02-26T10:43:00;6.18;;;3.70;;
6651;SDS011;3362;50.892;10.692;2024-02-26T10:45:26;8.70;;;3.92;;
6651;SDS011;3362;50.892;10.692;2024-02-26T10:47:53;8.63;;;4.53;;
6651;SDS011;3362;50.892;10.692;2024-02-26T10:50:19;15.25;;;6.00;;
6651;SDS011;3362;50.892;10.692;2024-02-26T10:52:45;8.00;;;5.15;;
6651;SDS011;3362;50.892;10.692;2024-02-26T10:55:13;6.07;;;5.07;;
6651;SDS011;3362;50.892;10.692;2024-02-26T10:57:44;13.57;;;4.63;;
6651;SDS011;3362;50.892;10.692;2024-02-26T11:00:13;6.38;;;5.38;;
6651;SDS011;3362;50.892;10.692;2024-02-26T11:02:40;8.63;;;4.68;;
6651;SDS011;3362;50.892;10.692;2024-02-26T11:05:07;6.18;;;4.20;;
6651;SDS011;3362;50.892;10.692;2024-02-26T11:07:33;8.32;;;4.88;;
6651;SDS011;3362;50.892;10.692;2024-02-26T11:10:00;12.05;;;6.13;;
6651;SDS011;3362;50.892;10.692;2024-02-26T11:14:55;4.63;;;3.33;;
6651;SDS011;3362;50.892;10.692;2024-02-26T11:17:23;7.57;;;6.13;;
6651;SDS011;3362;50.892;10.692;2024-02-26T11:19:51;5.05;;;3.78;;
6651;SDS011;3362;50.892;10.692;2024-02-26T11:22:18;11.00;;;5.70;;
6651;SDS011;3362;50.892;10.692;2024-02-26T11:24:46;11.43;;;5.53;;
6651;SDS011;3362;50.892;10.692;2024-02-26T11:27:13;6.35;;;4.20;;
6651;SDS011;3362;50.892;10.692;2024-02-26T11:29:40;8.65;;;4.75;;
6651;SDS011;3362;50.892;10.692;2024-02-26T11:32:09;5.80;;;4.35;;
6651;SDS011;3362;50.892;10.692;2024-02-26T11:34:36;5.10;;;3.58;;
6651;SDS011;3362;50.892;10.692;2024-02-26T11:37:08;4.97;;;4.35;;
6651;SDS011;3362;50.892;10.692;2024-02-26T11:39:35;5.55;;;4.28;;
6651;SDS011;3362;50.892;10.692;2024-02-26T11:42:04;4.13;;;3.72;;
6651;SDS011;3362;50.892;10.692;2024-02-26T11:44:30;6.82;;;4.85;;
6651;SDS011;3362;50.892;10.692;2024-02-26T11:46:57;7.13;;;5.75;;
6651;SDS011;3362;50.892;10.692;2024-02-26T11:51:52;5.00;;;3.95;;
6651;SDS011;3362;50.892;10.692;2024-02-26T11:57:01;11.50;;;4.75;;
6651;SDS011;3362;50.892;10.692;2024-02-26T11:59:37;7.90;;;4.88;;
6651;SDS011;3362;50.892;10.692;2024-02-26T12:02:03;5.88;;;3.72;;
6651;SDS011;3362;50.892;10.692;2024-02-26T12:04:30;5.10;;;3.28;;
6651;SDS011;3362;50.892;10.692;2024-02-26T12:07:00;9.98;;;5.55;;
6651;SDS011;3362;50.892;10.692;2024-02-26T12:09:33;10.52;;;6.13;;
6651;SDS011;3362;50.892;10.692;2024-02-26T12:12:00;7.60;;;4.53;;
6651;SDS011;3362;50.892;10.692;2024-02-26T12:14:27;4.15;;;3.58;;
6651;SDS011;3362;50.892;10.692;2024-02-26T12:16:53;5.03;;;3.95;;
6651;SDS011;3362;50.892;10.692;2024-02-26T12:19:21;12.40;;;5.32;;
6651;SDS011;3362;50.892;10.692;2024-02-26T12:21:50;12.57;;;5.72;;
6651;SDS011;3362;50.892;10.692;2024-02-26T12:24:18;8.95;;;7.60;;
6651;SDS011;3362;50.892;10.692;2024-02-26T12:26:45;5.03;;;4.38;;
6651;SDS011;3362;50.892;10.692;2024-02-26T12:29:11;7.13;;;4.70;;
6651;SDS011;3362;50.892;10.692;2024-02-26T12:31:38;8.98;;;4.57;;
6651;SDS011;3362;50.892;10.692;2024-02-26T12:34:05;7.25;;;4.55;;
6651;SDS011;3362;50.892;10.692;2024-02-26T12:36:32;6.40;;;5.72;;
6651;SDS011;3362;50.892;10.692;2024-02-26T12:38:59;10.20;;;6.40;;
6651;SDS011;3362;50.892;10.692;2024-02-26T12:41:27;7.60;;;4.97;;
6651;SDS011;3362;50.892;10.692;2024-02-26T12:43:54;7.97;;;5.00;;
6651;SDS011;3362;50.892;10.692;2024-02-26T12:46:21;11.18;;;5.63;;
6651;SDS011;3362;50.892;10.692;2024-02-26T12:48:47;10.57;;;6.03;;
6651;SDS011;3362;50.892;10.692;2024-02-26T12:51:14;8.98;;;6.45;;
6651;SDS011;3362;50.892;10.692;2024-02-26T12:53:41;10.23;;;6.88;;
6651;SDS011;3362;50.892;10.692;2024-02-26T12:56:08;12.40;;;6.63;;
6651;SDS011;3362;50.892;10.692;2024-02-26T12:58:36;10.93;;;6.97;;
6651;SDS011;3362;50.892;10.692;2024-02-26T13:01:04;9.45;;;6.88;;
6651;SDS011;3362;50.892;10.692;2024-02-26T13:03:30;10.27;;;7.13;;
6651;SDS011;3362;50.892;10.692;2024-02-26T13:05:57;12.00;;;6.40;;
6651;SDS011;3362;50.892;10.692;2024-02-26T13:08:24;5.65;;;4.57;;
6651;SDS011;3362;50.892;10.692;2024-02-26T13:13:17;15.07;;;11.07;;
6651;SDS011;3362;50.892;10.692;2024-02-26T13:15:46;17.30;;;9.55;;
6651;SDS011;3362;50.892;10.692;2024-02-26T13:18:12;16.17;;;9.18;;
6651;SDS011;3362;50.892;10.692;2024-02-26T13:20:39;16.45;;;8.77;;
6651;SDS011;3362;50.892;10.692;2024-02-26T13:23:06;17.25;;;8.00;;
6651;SDS011;3362;50.892;10.692;2024-02-26T13:25:33;13.18;;;6.47;;
6651;SDS011;3362;50.892;10.692;2024-02-26T13:28:06;17.15;;;8.35;;
6651;SDS011;3362;50.892;10.692;2024-02-26T13:30:33;14.00;;;8.20;;
6651;SDS011;3362;50.892;10.692;2024-02-26T13:33:09;12.27;;;5.97;;
6651;SDS011;3362;50.892;10.692;2024-02-26T13:35:36;7.93;;;5.85;;
6651;SDS011;3362;50.892;10.692;2024-02-26T13:38:04;12.70;;;7.95;;
6651;SDS011;3362;50.892;10.692;2024-02-26T13:40:30;19.77;;;8.20;;
6651;SDS011;3362;50.892;10.692;2024-02-26T13:42:56;8.32;;;6.10;;
6651;SDS011;3362;50.892;10.692;2024-02-26T13:45:22;11.75;;;6.90;;
6651;SDS011;3362;50.892;10.692;2024-02-26T13:47:48;14.73;;;8.15;;
6651;SDS011;3362;50.892;10.692;2024-02-26T13:50:16;14.15;;;8.52;;
6651;SDS011;3362;50.892;10.692;2024-02-26T13:52:46;19.13;;;8.85;;
6651;SDS011;3362;50.892;10.692;2024-02-26T13:55:12;9.30;;;5.47;;
6651;SDS011;3362;50.892;10.692;2024-02-26T13:57:39;7.93;;;5.15;;
6651;SDS011;3362;50.892;10.692;2024-02-26T14:00:06;16.73;;;7.85;;
6651;SDS011;3362;50.892;10.692;2024-02-26T14:02:32;10.15;;;6.47;;
6651;SDS011;3362;50.892;10.692;2024-02-26T14:05:01;8.88;;;5.93;;
6651;SDS011;3362;50.892;10.692;2024-02-26T14:07:30;12.50;;;5.95;;
6651;SDS011;3362;50.892;10.692;2024-02-26T14:09:57;17.63;;;9.88;;
6651;SDS011;3362;50.892;10.692;2024-02-26T14:12:24;20.55;;;12.20;;
6651;SDS011;3362;50.892;10.692;2024-02-26T14:14:50;10.27;;;7.32;;
6651;SDS011;3362;50.892;10.692;2024-02-26T14:17:18;17.77;;;7.10;;
6651;SDS011;3362;50.892;10.692;2024-02-26T14:19:44;10.20;;;6.70;;
6651;SDS011;3362;50.892;10.692;2024-02-26T14:22:13;9.98;;;7.50;;
6651;SDS011;3362;50.892;10.692;2024-02-26T14:24:41;10.10;;;4.88;;
6651;SDS011;3362;50.892;10.692;2024-02-26T14:27:07;13.80;;;7.25;;
6651;SDS011;3362;50.892;10.692;2024-02-26T14:29:33;20.42;;;13.23;;
6651;SDS011;3362;50.892;10.692;2024-02-26T14:32:00;21.30;;;13.50;;
6651;SDS011;3362;50.892;10.692;2024-02-26T14:34:26;17.75;;;11.38;;
6651;SDS011;3362;50.892;10.692;2024-02-26T14:36:52;11.50;;;7.85;;
6651;SDS011;3362;50.892;10.692;2024-02-26T14:39:19;13.85;;;8.90;;
6651;SDS011;3362;50.892;10.692;2024-02-26T14:41:46;16.45;;;9.00;;
6651;SDS011;3362;50.892;10.692;2024-02-26T14:44:13;16.65;;;10.07;;
6651;SDS011;3362;50.892;10.692;2024-02-26T14:46:39;17.52;;;8.55;;
6651;SDS011;3362;50.892;10.692;2024-02-26T14:49:05;11.70;;;7.20;;
6651;SDS011;3362;50.892;10.692;2024-02-26T14:51:31;10.32;;;6.05;;
6651;SDS011;3362;50.892;10.692;2024-02-26T14:53:58;17.63;;;7.68;;
6651;SDS011;3362;50.892;10.692;2024-02-26T14:56:26;18.88;;;9.50;;
6651;SDS011;3362;50.892;10.692;2024-02-26T14:58:53;48.35;;;22.27;;
6651;SDS011;3362;50.892;10.692;2024-02-26T15:01:19;53.80;;;24.15;;
6651;SDS011;3362;50.892;10.692;2024-02-26T15:03:46;22.52;;;12.80;;
6651;SDS011;3362;50.892;10.692;2024-02-26T15:06:12;20.63;;;14.43;;
6651;SDS011;3362;50.892;10.692;2024-02-26T15:08:38;24.30;;;11.82;;
6651;SDS011;3362;50.892;10.692;2024-02-26T15:11:05;21.38;;;12.07;;
6651;SDS011;3362;50.892;10.692;2024-02-26T15:13:32;25.38;;;13.55;;
6651;SDS011;3362;50.892;10.692;2024-02-26T15:15:59;29.58;;;14.48;;